Weather History for Shenandoah, IA

Change the Weather History Date:

Monday, May 27, 2013

  Actual Average Record
Temperature  
Mean Temperature 67 °F -  
Max Temperature 75 °F 76 °F 94 °F (1966)
Min Temperature 59 °F 54 °F 36 °F (1992)
Cooling Degree Days 2    
Growing Degree Days 17 (Base 50)    
Moisture  
Dew Point 59 °F    
Average Humidity 77    
Maximum Humidity 88    
Minimum Humidity 65    
Precipitation  
Precipitation 2.32 in - - ()
Sea Level Pressure  
Sea Level Pressure 29.79 in    
Wind  
Wind Speed 15 mph (East)    
Max Wind Speed 45 mph    
Max Gust Speed 54 mph    
Visibility 9 miles    
Events Rain    
Averages and records for this station are not official NWS values.
T = Trace of Precipitation, MM = Missing Value Source: NWS Daily Summary

Daily Weather History Graph

Daily Weather History Graph

Search for Another Location

Airport:

Trip Planner

Search our weather history database for the weather conditions in past years. The results will help you decide how hot, cold, wet, or windy it might be!

Date:

Astronomy

May. 27, 2013 Rise Set
Actual Time 5:54 AM CDT 8:43 PM CDT
Civil Twilight 5:22 AM CDT 9:15 PM CDT
Nautical Twilight 4:42 AM CDT 9:56 PM CDT
Astronomical Twilight 3:55 AM CDT 10:42 PM CDT
Moon 11:22 PM CDT (5/27) 8:33 AM CDT (5/27)
Length of Visible Light 15h 52m
Length of Day
14h 48m
Waning Gibbous, 91% of the Moon is Illuminated
May 27
Waning Gibbous
May 31
Last Quarter
Jun 8
New
Jun 16
First Quarter
Jun 23
Full

Hourly Weather History & Observations

Time (CDT) Temp. Dew Point Humidity Pressure Visibility Wind Dir Wind Speed Gust Speed Precip Events Conditions
12:15 AM 66.2 °F 57.2 °F 73% 29.89 in 10.0 mi SE 12.7 mph - N/A   Scattered Clouds
12:35 AM 66.2 °F 57.2 °F 73% 29.89 in 10.0 mi SE 16.1 mph - N/A   Scattered Clouds
12:55 AM 66.2 °F 57.2 °F 73% 29.90 in 10.0 mi SE 13.8 mph 18.4 mph N/A   Scattered Clouds
1:15 AM 66.2 °F 57.2 °F 73% 29.91 in 10.0 mi SE 12.7 mph - N/A   Scattered Clouds
1:35 AM 66.2 °F 59.0 °F 78% 29.90 in 10.0 mi SE 15.0 mph 19.6 mph N/A   Scattered Clouds
1:55 AM 66.2 °F 59.0 °F 78% 29.90 in 10.0 mi SE 15.0 mph - N/A   Scattered Clouds
2:15 AM 66.2 °F 60.8 °F 83% 29.89 in 10.0 mi SE 13.8 mph - N/A   Scattered Clouds
2:35 AM 68.0 °F 60.8 °F 78% 29.88 in 10.0 mi SSE 18.4 mph - N/A   Scattered Clouds
2:55 AM 68.0 °F 60.8 °F 78% 29.85 in 10.0 mi SSE 17.3 mph 24.2 mph N/A   Scattered Clouds
3:15 AM 69.8 °F 59.0 °F 68% 29.83 in 10.0 mi SSE 19.6 mph 27.6 mph N/A   Scattered Clouds
3:35 AM 69.8 °F 59.0 °F 68% 29.91 in 10.0 mi NW 15.0 mph 21.9 mph N/A   Mostly Cloudy
3:55 AM 60.8 °F 55.4 °F 82% 29.85 in 1.0 mi North 44.9 mph 54.1 mph 0.30 in Rain Heavy Rain
4:15 AM 60.8 °F 55.4 °F 82% 29.90 in 0.5 mi NNE 32.2 mph 39.1 mph 0.59 in Rain Heavy Rain
4:35 AM 60.8 °F 55.4 °F 82% 29.89 in 5.0 mi NE 21.9 mph 34.5 mph 0.76 in Rain Rain
4:55 AM 60.8 °F 55.4 °F 82% 29.88 in 7.0 mi ENE 19.6 mph 29.9 mph 0.80 in Rain Light Rain
5:15 AM 60.8 °F 55.4 °F 82% 29.88 in 10.0 mi ENE 12.7 mph 25.3 mph 0.04 in Rain Rain
5:35 AM 59.0 °F 55.4 °F 88% 29.88 in 10.0 mi East 17.3 mph 25.3 mph 0.12 in Rain Light Rain
5:55 AM 60.8 °F 55.4 °F 82% 29.90 in 10.0 mi East 16.1 mph 21.9 mph 0.19 in Rain Rain
6:15 AM 60.8 °F 55.4 °F 82% 29.89 in 10.0 mi East 19.6 mph 23.0 mph 0.04 in Rain Light Rain
6:35 AM 60.8 °F 55.4 °F 82% 29.85 in 10.0 mi East 20.7 mph 29.9 mph 0.09 in Rain Light Rain
6:55 AM 60.8 °F 55.4 °F 82% 29.86 in 10.0 mi ESE 17.3 mph 24.2 mph 0.11 in Rain Light Rain
7:15 AM 60.8 °F 57.2 °F 88% 29.87 in 10.0 mi ESE 16.1 mph 23.0 mph 0.03 in Rain Rain
7:35 AM 60.8 °F 55.4 °F 82% 29.83 in 10.0 mi ESE 20.7 mph 27.6 mph 0.07 in Rain Rain
7:55 AM 60.8 °F 55.4 °F 82% 29.83 in 10.0 mi SE 23.0 mph 31.1 mph 0.08 in Rain Light Rain
8:15 AM 60.8 °F 57.2 °F 88% 29.88 in 10.0 mi SE 13.8 mph - 0.03 in Rain Heavy Rain
8:35 AM 60.8 °F 57.2 °F 88% 29.85 in 10.0 mi ESE 17.3 mph - 0.06 in Rain Rain
8:55 AM 60.8 °F 55.4 °F 82% 29.86 in 10.0 mi SSE 17.3 mph - 0.10 in Rain Rain
9:15 AM 60.8 °F 55.4 °F 82% 29.84 in 10.0 mi SE 15.0 mph - 0.05 in Rain Rain
9:35 AM 60.8 °F 55.4 °F 82% 29.81 in 10.0 mi SE 20.7 mph - 0.07 in Rain Light Rain
9:55 AM 60.8 °F 55.4 °F 82% 29.80 in 10.0 mi SSE 18.4 mph 25.3 mph 0.08 in Rain Light Rain
10:15 AM 60.8 °F 55.4 °F 82% 29.78 in 10.0 mi SE 17.3 mph - N/A   Clear
10:35 AM 62.6 °F 55.4 °F 77% 29.77 in 10.0 mi SSE 23.0 mph 28.8 mph N/A   Clear
10:55 AM 62.6 °F 57.2 °F 82% 29.75 in 10.0 mi SSE 21.9 mph 28.8 mph N/A   Clear
11:15 AM 64.4 °F 57.2 °F 77% 29.73 in 10.0 mi SSE 18.4 mph 25.3 mph N/A   Clear
11:35 AM 64.4 °F 57.2 °F 77% 29.72 in 10.0 mi South 18.4 mph 26.5 mph N/A   Clear
11:55 AM 64.4 °F 59.0 °F 83% 29.73 in 10.0 mi South 19.6 mph 26.5 mph N/A   Clear
12:15 PM 66.2 °F 59.0 °F 78% 29.74 in 10.0 mi South 17.3 mph 26.5 mph N/A   Clear
12:35 PM 66.2 °F 60.8 °F 83% 29.77 in 10.0 mi South 11.5 mph 18.4 mph N/A   Clear
12:55 PM 69.8 °F 60.8 °F 73% 29.81 in 10.0 mi North 5.8 mph - N/A   Clear
1:15 PM 69.8 °F 60.8 °F 73% 29.80 in 10.0 mi Calm Calm - N/A   Scattered Clouds
1:35 PM 71.6 °F 62.6 °F 73% 29.79 in 10.0 mi NNE 6.9 mph - N/A   Scattered Clouds
1:55 PM 71.6 °F 60.8 °F 69% 29.80 in 10.0 mi NE 4.6 mph - N/A   Scattered Clouds
2:15 PM 71.6 °F 62.6 °F 73% 29.79 in 10.0 mi NE 9.2 mph - N/A   Scattered Clouds
2:35 PM 73.4 °F 62.6 °F 69% 29.78 in 10.0 mi East 8.1 mph - N/A   Mostly Cloudy
2:55 PM 73.4 °F 62.6 °F 69% 29.77 in 10.0 mi ESE 5.8 mph - N/A   Scattered Clouds
3:15 PM 73.4 °F 62.6 °F 69% 29.77 in 10.0 mi ESE 4.6 mph - N/A   Scattered Clouds
3:35 PM 73.4 °F 62.6 °F 69% 29.76 in 10.0 mi East 8.1 mph - N/A   Scattered Clouds
3:55 PM 73.4 °F 62.6 °F 69% 29.75 in 10.0 mi East 9.2 mph - N/A   Mostly Cloudy
4:15 PM 75.2 °F 62.6 °F 65% 29.75 in 10.0 mi East 8.1 mph - N/A   Mostly Cloudy
4:35 PM 73.4 °F 62.6 °F 69% 29.74 in 10.0 mi ESE 8.1 mph - N/A   Overcast
4:55 PM 73.4 °F 62.6 °F 69% 29.74 in 10.0 mi East 9.2 mph - N/A   Overcast
5:15 PM 73.4 °F 62.6 °F 69% 29.74 in 10.0 mi East 6.9 mph - N/A   Overcast
5:35 PM 71.6 °F 62.6 °F 73% 29.74 in 10.0 mi East 8.1 mph - N/A   Overcast
5:55 PM 71.6 °F 62.6 °F 73% 29.73 in 10.0 mi East 9.2 mph - N/A Rain Light Rain
6:15 PM 71.6 °F 62.6 °F 73% 29.72 in 10.0 mi ENE 8.1 mph - N/A   Overcast
6:35 PM 71.6 °F 62.6 °F 73% 29.71 in 10.0 mi ENE 9.2 mph - N/A   Overcast
6:55 PM 71.6 °F 62.6 °F 73% 29.71 in 10.0 mi ENE 8.1 mph - N/A   Overcast
7:15 PM 69.8 °F 62.6 °F 78% 29.73 in 10.0 mi ENE 8.1 mph - N/A   Overcast
7:35 PM 69.8 °F 62.6 °F 78% 29.72 in 10.0 mi ENE 9.2 mph - N/A   Mostly Cloudy
7:55 PM 69.8 °F 62.6 °F 78% 29.71 in 10.0 mi East 8.1 mph - N/A   Scattered Clouds
8:15 PM 69.8 °F 60.8 °F 73% 29.70 in 10.0 mi East 12.7 mph - N/A   Mostly Cloudy
8:35 PM 69.8 °F 60.8 °F 73% 29.70 in 10.0 mi East 9.2 mph - N/A   Overcast
8:55 PM 69.8 °F 60.8 °F 73% 29.71 in 10.0 mi ENE 8.1 mph - N/A   Overcast
9:15 PM 69.8 °F 60.8 °F 73% 29.69 in 10.0 mi ENE 9.2 mph - N/A   Overcast
9:35 PM 69.8 °F 60.8 °F 73% 29.68 in 10.0 mi East 9.2 mph - N/A   Overcast
9:55 PM 69.8 °F 60.8 °F 73% 29.69 in 10.0 mi East 10.4 mph - N/A   Overcast
10:15 PM 69.8 °F 62.6 °F 78% 29.71 in 10.0 mi East 8.1 mph - N/A   Overcast
10:35 PM 68.0 °F 60.8 °F 78% 29.70 in 10.0 mi NE 10.4 mph - N/A Rain Light Rain
10:55 PM 66.2 °F 60.8 °F 83% 29.72 in 7.0 mi NE 6.9 mph - N/A Rain Rain
11:15 PM 64.4 °F 60.8 °F 88% 29.77 in 1.5 mi NW 28.8 mph 38.0 mph 0.27 in Rain Heavy Rain
11:35 PM 62.6 °F 59.0 °F 88% 29.75 in 5.0 mi NNW 15.0 mph 23.0 mph 0.62 in Rain Heavy Rain
11:55 PM 62.6 °F 57.2 °F 82% 29.70 in 10.0 mi ENE 16.1 mph - 0.66 in Rain Light Rain